createdAt,value
2022-07-29T00:02:14.957Z,16.44
2022-07-29T00:04:41.577Z,16.35
2022-07-29T00:07:08.072Z,16.25
2022-07-29T00:09:42.952Z,16.28
2022-07-29T00:12:17.231Z,16.10
2022-07-29T00:14:56.896Z,16.05
2022-07-29T00:17:26.038Z,15.84
2022-07-29T00:19:53.493Z,15.84
2022-07-29T00:22:22.067Z,15.77
2022-07-29T00:24:50.030Z,15.60
2022-07-29T00:27:17.887Z,15.61
2022-07-29T00:29:44.410Z,15.57
2022-07-29T00:32:11.066Z,15.51
2022-07-29T00:34:56.074Z,15.49
2022-07-29T00:37:23.219Z,15.44
2022-07-29T00:39:49.688Z,15.42
2022-07-29T00:42:17.262Z,15.44
2022-07-29T00:44:44.418Z,15.33
2022-07-29T00:47:12.669Z,15.28
2022-07-29T00:49:41.381Z,15.32
2022-07-29T00:52:09.459Z,15.37
2022-07-29T00:54:39.198Z,15.38
2022-07-29T00:57:11.843Z,15.32
2022-07-29T00:59:38.250Z,15.36
2022-07-29T01:02:04.794Z,15.34
2022-07-29T01:04:32.842Z,15.38
2022-07-29T01:07:01.500Z,15.46
2022-07-29T01:09:42.949Z,15.37
2022-07-29T01:12:34.685Z,15.35
2022-07-29T01:15:03.243Z,15.25
2022-07-29T01:17:37.383Z,15.22
2022-07-29T01:20:06.993Z,15.18
2022-07-29T01:22:42.245Z,15.15
2022-07-29T01:25:24.377Z,15.16
2022-07-29T01:28:07.280Z,15.27
2022-07-29T01:30:39.110Z,15.29
2022-07-29T01:33:11.046Z,15.32
2022-07-29T01:35:41.939Z,15.28
2022-07-29T01:38:14.403Z,15.20
2022-07-29T01:41:03.631Z,15.17
2022-07-29T01:43:45.285Z,15.10
2022-07-29T01:46:15.750Z,15.17
2022-07-29T01:48:48.222Z,15.22
2022-07-29T01:51:40.799Z,15.16
2022-07-29T01:54:29.152Z,15.17
2022-07-29T01:57:02.645Z,15.04
2022-07-29T01:59:30.449Z,14.99
2022-07-29T02:01:59.755Z,14.96
2022-07-29T02:04:29.950Z,14.96
2022-07-29T02:07:02.218Z,14.95
2022-07-29T02:09:30.998Z,15.00
2022-07-29T02:12:00.083Z,14.86
2022-07-29T02:14:32.629Z,14.91
2022-07-29T02:17:02.553Z,14.75
2022-07-29T02:19:32.219Z,14.74
2022-07-29T02:22:07.401Z,14.71
2022-07-29T02:24:36.320Z,14.78
2022-07-29T02:27:04.019Z,14.82
2022-07-29T02:29:32.067Z,14.78
2022-07-29T02:32:00.263Z,14.72
2022-07-29T02:34:29.152Z,14.74
2022-07-29T02:36:57.210Z,14.68
2022-07-29T02:39:27.765Z,14.72
2022-07-29T02:42:02.131Z,14.70
2022-07-29T02:44:34.141Z,14.70
2022-07-29T02:47:13.879Z,14.74
2022-07-29T02:49:58.927Z,14.70
2022-07-29T02:52:35.708Z,14.80
2022-07-29T02:55:35.670Z,14.81
2022-07-29T02:58:06.622Z,14.86
2022-07-29T03:00:38.031Z,14.84
2022-07-29T03:03:08.601Z,14.85
2022-07-29T03:05:36.124Z,14.79
2022-07-29T03:08:06.435Z,14.76
2022-07-29T03:10:33.318Z,14.80
2022-07-29T03:13:01.121Z,14.74
2022-07-29T03:15:28.753Z,14.74
2022-07-29T03:17:56.532Z,14.79
2022-07-29T03:20:24.433Z,14.86
2022-07-29T03:22:51.242Z,14.95
2022-07-29T03:25:20.998Z,15.02
2022-07-29T03:27:48.738Z,15.02
2022-07-29T03:30:18.425Z,14.87
2022-07-29T03:32:50.011Z,14.81
2022-07-29T03:35:22.128Z,14.89
2022-07-29T03:37:49.085Z,14.74
2022-07-29T03:40:23.285Z,14.81
2022-07-29T03:42:53.439Z,14.89
2022-07-29T03:45:22.159Z,14.85
2022-07-29T03:47:59.970Z,14.87
2022-07-29T03:50:29.781Z,14.86
2022-07-29T03:53:00.116Z,14.95
2022-07-29T03:55:32.995Z,15.00
2022-07-29T03:58:03.298Z,14.98
2022-07-29T04:00:31.084Z,14.93
2022-07-29T04:02:58.117Z,14.95
2022-07-29T04:05:24.834Z,14.89
2022-07-29T04:07:51.439Z,14.95
2022-07-29T04:10:26.398Z,14.96
2022-07-29T04:12:58.027Z,14.92
2022-07-29T04:15:24.608Z,14.97
2022-07-29T04:17:51.063Z,14.95
2022-07-29T04:20:17.583Z,14.90
2022-07-29T04:22:44.075Z,14.97
2022-07-29T04:25:10.713Z,15.08
2022-07-29T04:27:57.228Z,15.10
2022-07-29T04:30:26.302Z,15.07
2022-07-29T04:32:53.781Z,15.12
2022-07-29T04:35:22.533Z,15.20
2022-07-29T04:37:49.128Z,15.27
2022-07-29T04:40:15.586Z,15.36
2022-07-29T04:42:46.503Z,15.41
2022-07-29T04:45:13.799Z,15.52
2022-07-29T04:47:40.793Z,15.46
2022-07-29T04:50:09.040Z,15.51
2022-07-29T04:52:38.074Z,15.49
2022-07-29T04:55:06.044Z,15.51
2022-07-29T04:57:33.192Z,15.60
2022-07-29T05:00:00.042Z,15.64
2022-07-29T05:02:26.715Z,15.71
2022-07-29T05:04:53.647Z,15.64
2022-07-29T05:07:20.914Z,15.67
2022-07-29T05:09:47.834Z,15.76
2022-07-29T05:12:14.265Z,15.70
2022-07-29T05:14:40.728Z,15.68
2022-07-29T05:17:07.143Z,15.59
2022-07-29T05:19:33.667Z,15.55
2022-07-29T05:22:06.431Z,15.64
2022-07-29T05:24:32.974Z,15.57
2022-07-29T05:26:59.924Z,15.62
2022-07-29T05:29:43.983Z,15.62
2022-07-29T05:32:11.895Z,15.65
2022-07-29T05:34:38.373Z,15.70
2022-07-29T05:37:21.135Z,15.78
2022-07-29T05:39:48.960Z,15.82
2022-07-29T05:42:23.401Z,15.81
2022-07-29T05:44:49.856Z,15.92
2022-07-29T05:47:16.974Z,16.02
2022-07-29T05:49:43.437Z,15.99
2022-07-29T05:52:10.347Z,16.03
2022-07-29T05:54:37.375Z,15.99
2022-07-29T05:57:04.158Z,16.08
2022-07-29T05:59:30.794Z,16.18
2022-07-29T06:01:58.429Z,16.17
2022-07-29T06:04:25.832Z,16.25
2022-07-29T06:06:53.787Z,16.23
2022-07-29T06:09:20.418Z,16.19
2022-07-29T06:11:47.088Z,16.14
2022-07-29T06:14:13.880Z,16.21
2022-07-29T06:16:40.678Z,16.37
2022-07-29T06:19:07.258Z,16.34
2022-07-29T06:21:34.496Z,16.56
2022-07-29T06:24:03.018Z,16.49
2022-07-29T06:26:30.611Z,16.45
2022-07-29T06:28:57.738Z,16.49
2022-07-29T06:31:24.544Z,16.57
2022-07-29T06:33:51.270Z,16.60
2022-07-29T06:36:22.967Z,16.63
2022-07-29T06:38:52.268Z,16.69
2022-07-29T06:41:20.998Z,16.68
2022-07-29T06:43:52.236Z,16.73
2022-07-29T06:46:23.737Z,16.64
2022-07-29T06:48:52.910Z,16.73
2022-07-29T06:51:29.069Z,16.90
2022-07-29T06:53:59.476Z,16.99
2022-07-29T06:56:38.965Z,16.96
2022-07-29T06:59:10.070Z,16.97
2022-07-29T07:01:38.192Z,17.04
2022-07-29T07:04:04.990Z,17.06
2022-07-29T07:06:31.449Z,17.07
2022-07-29T07:08:57.922Z,17.15
2022-07-29T07:11:24.756Z,17.31
2022-07-29T07:13:51.221Z,17.50
2022-07-29T07:16:17.711Z,17.44
2022-07-29T07:18:45.982Z,17.49
2022-07-29T07:21:13.052Z,17.56
2022-07-29T07:23:49.336Z,17.75
2022-07-29T07:26:15.784Z,17.76
2022-07-29T07:28:42.295Z,17.90
2022-07-29T07:31:08.908Z,17.91
2022-07-29T07:33:35.445Z,18.09
2022-07-29T07:36:02.667Z,18.28
2022-07-29T07:38:29.126Z,18.47
2022-07-29T07:40:56.370Z,18.43
2022-07-29T07:43:23.709Z,18.62
2022-07-29T07:45:50.238Z,18.48
2022-07-29T07:48:16.703Z,18.51
2022-07-29T07:50:44.592Z,18.68
2022-07-29T07:53:11.661Z,18.66
2022-07-29T07:56:09.370Z,18.73
2022-07-29T07:58:31.058Z,18.51
2022-07-29T08:00:57.786Z,18.64
2022-07-29T08:03:24.872Z,18.77
2022-07-29T08:05:55.238Z,18.79
2022-07-29T08:08:22.395Z,18.81
2022-07-29T08:10:56.704Z,18.91
2022-07-29T08:13:28.153Z,19.02
2022-07-29T08:16:02.547Z,19.09
2022-07-29T08:18:31.140Z,19.18
2022-07-29T08:20:59.123Z,19.31
2022-07-29T08:23:32.981Z,19.25
2022-07-29T08:26:14.402Z,19.28
2022-07-29T08:28:46.498Z,19.30
2022-07-29T08:31:14.596Z,19.39
2022-07-29T08:33:41.214Z,19.47
2022-07-29T08:36:08.067Z,19.46
2022-07-29T08:38:34.730Z,19.54
2022-07-29T08:41:02.277Z,19.69
2022-07-29T08:43:31.510Z,19.83
2022-07-29T08:45:58.284Z,20.01
2022-07-29T08:48:25.844Z,20.16
2022-07-29T08:50:57.637Z,20.31
2022-07-29T08:53:27.720Z,20.16
2022-07-29T08:55:55.687Z,20.01
2022-07-29T08:58:24.932Z,20.13
2022-07-29T09:00:55.283Z,20.32
2022-07-29T09:03:29.195Z,20.34
2022-07-29T09:05:56.083Z,20.38
2022-07-29T09:08:27.076Z,20.50
2022-07-29T09:10:54.773Z,20.51
2022-07-29T09:13:22.574Z,20.66
2022-07-29T09:15:49.711Z,20.68
2022-07-29T09:18:37.753Z,20.75
2022-07-29T09:21:27.711Z,20.85
2022-07-29T09:24:10.326Z,20.75
2022-07-29T09:26:39.602Z,20.73
2022-07-29T09:29:21.185Z,20.96
2022-07-29T09:31:50.683Z,20.95
2022-07-29T09:34:32.796Z,21.00
2022-07-29T09:36:59.310Z,21.17
2022-07-29T09:39:31.741Z,21.18
2022-07-29T09:42:00.327Z,21.18
2022-07-29T09:44:28.208Z,21.28
2022-07-29T09:47:06.832Z,21.54
2022-07-29T09:49:35.012Z,21.97
2022-07-29T09:52:09.473Z,22.37
2022-07-29T09:54:39.545Z,22.61
2022-07-29T09:57:07.872Z,22.87
2022-07-29T09:59:34.428Z,22.92
2022-07-29T10:02:01.294Z,22.96
2022-07-29T10:04:39.659Z,22.96
2022-07-29T10:07:06.392Z,22.59
2022-07-29T10:09:34.288Z,22.48
2022-07-29T10:12:17.254Z,22.22
2022-07-29T10:14:43.775Z,22.29
2022-07-29T10:17:11.488Z,22.27
2022-07-29T10:19:39.701Z,22.18
2022-07-29T10:22:09.077Z,22.16
2022-07-29T10:24:36.457Z,22.16
2022-07-29T10:27:05.162Z,22.35
2022-07-29T10:29:32.457Z,22.61
2022-07-29T10:32:13.849Z,22.76
2022-07-29T10:34:59.016Z,22.70
2022-07-29T10:37:45.972Z,22.87
2022-07-29T10:40:48.003Z,22.74
2022-07-29T10:43:25.127Z,22.76
2022-07-29T10:46:00.766Z,22.81
2022-07-29T10:48:28.102Z,22.73
2022-07-29T10:51:06.851Z,22.55
2022-07-29T10:53:48.747Z,22.43
2022-07-29T10:56:29.328Z,22.78
2022-07-29T10:59:21.395Z,23.36
2022-07-29T11:01:54.222Z,23.61
2022-07-29T11:04:44.171Z,24.05
2022-07-29T11:07:11.616Z,24.12
2022-07-29T11:09:38.974Z,24.20
2022-07-29T11:12:37.707Z,24.51
2022-07-29T11:15:09.407Z,24.54
2022-07-29T11:18:03.265Z,24.56
2022-07-29T11:20:45.609Z,24.56
2022-07-29T11:23:21.709Z,24.41
2022-07-29T11:26:28.052Z,24.45
2022-07-29T11:29:06.924Z,24.52
2022-07-29T11:31:46.049Z,24.36
2022-07-29T11:34:31.769Z,24.55
2022-07-29T11:37:07.573Z,24.54
2022-07-29T11:39:41.419Z,24.52
2022-07-29T11:42:32.113Z,24.60
2022-07-29T11:45:43.764Z,24.68
2022-07-29T11:48:29.607Z,24.88
2022-07-29T11:50:48.437Z,24.96
2022-07-29T11:53:15.612Z,24.85
2022-07-29T11:55:51.823Z,24.92
2022-07-29T12:01:15.129Z,25.19
2022-07-29T12:03:43.712Z,25.24
2022-07-29T12:06:15.589Z,25.26
2022-07-29T12:07:02.364Z,25.07
2022-07-29T12:08:45.465Z,25.38
2022-07-29T12:11:21.991Z,25.40
2022-07-29T12:13:50.194Z,25.19
2022-07-29T12:16:25.610Z,25.09
2022-07-29T12:19:00.495Z,25.32
2022-07-29T12:21:29.335Z,24.69
2022-07-29T12:24:08.957Z,25.08
2022-07-29T12:26:36.348Z,25.05
2022-07-29T12:29:03.742Z,25.04
2022-07-29T12:31:43.898Z,24.76
2022-07-29T12:34:13.114Z,24.91
2022-07-29T12:36:40.022Z,25.04
2022-07-29T12:39:06.832Z,25.06
2022-07-29T12:41:33.337Z,24.96
2022-07-29T12:44:00.379Z,25.34
2022-07-29T12:46:27.141Z,25.52
2022-07-29T12:48:56.271Z,25.64
2022-07-29T12:51:37.766Z,25.69
2022-07-29T12:54:07.110Z,25.86
2022-07-29T12:56:42.783Z,26.31
2022-07-29T12:59:26.779Z,26.91
2022-07-29T13:01:53.801Z,26.87
2022-07-29T13:04:28.550Z,26.77
2022-07-29T13:07:09.181Z,26.77
2022-07-29T13:09:45.154Z,26.84
2022-07-29T13:12:13.395Z,27.02
2022-07-29T13:14:45.196Z,27.43
2022-07-29T13:17:20.413Z,27.40
2022-07-29T13:19:48.729Z,27.68
2022-07-29T13:22:17.477Z,27.77
2022-07-29T13:24:57.969Z,27.38
2022-07-29T13:27:32.982Z,27.42
2022-07-29T13:30:03.970Z,27.28
2022-07-29T13:32:31.145Z,27.09
2022-07-29T13:34:59.681Z,26.94
2022-07-29T13:37:27.381Z,26.59
2022-07-29T13:39:55.179Z,26.53
2022-07-29T13:42:26.770Z,26.53
2022-07-29T13:44:55.176Z,26.51
2022-07-29T13:47:23.285Z,26.53
2022-07-29T13:49:59.480Z,26.43
2022-07-29T13:52:26.800Z,26.40
2022-07-29T13:54:54.267Z,26.25
2022-07-29T13:57:21.354Z,26.18
2022-07-29T13:59:52.013Z,26.31
2022-07-29T14:02:45.914Z,26.02
2022-07-29T14:05:12.416Z,26.12
2022-07-29T14:07:42.383Z,25.93
2022-07-29T14:10:09.364Z,25.91
2022-07-29T14:12:35.881Z,25.97
2022-07-29T14:15:02.431Z,25.98
2022-07-29T14:17:29.233Z,26.04
2022-07-29T14:19:56.207Z,26.10
2022-07-29T14:22:26.275Z,26.10
2022-07-29T14:24:54.141Z,26.16
2022-07-29T14:27:37.450Z,26.14
2022-07-29T14:30:06.025Z,26.32
2022-07-29T14:32:32.458Z,26.14
2022-07-29T14:34:58.900Z,26.19
2022-07-29T14:37:26.255Z,26.29
2022-07-29T14:39:57.408Z,26.36
2022-07-29T14:42:24.604Z,26.48
2022-07-29T14:44:51.057Z,26.57
2022-07-29T14:47:17.840Z,26.77
2022-07-29T14:49:44.296Z,26.95
2022-07-29T14:52:10.732Z,26.89
2022-07-29T14:54:37.157Z,26.79
2022-07-29T14:57:03.635Z,26.52
2022-07-29T14:59:30.214Z,26.40
2022-07-29T15:01:57.198Z,26.24
2022-07-29T15:04:24.413Z,26.23
2022-07-29T15:06:51.177Z,26.21
2022-07-29T15:09:17.661Z,26.27
2022-07-29T15:11:44.159Z,26.08
2022-07-29T15:14:10.757Z,26.01
2022-07-29T15:16:38.677Z,26.06
2022-07-29T15:19:05.479Z,26.01
2022-07-29T15:21:32.180Z,26.03
2022-07-29T15:23:58.738Z,26.10
2022-07-29T15:26:27.245Z,26.07
2022-07-29T15:28:56.493Z,26.33
2022-07-29T15:31:24.460Z,26.35
2022-07-29T15:33:54.406Z,26.48
2022-07-29T15:36:50.972Z,26.39
2022-07-29T15:39:10.908Z,26.43
2022-07-29T15:41:37.496Z,26.51
2022-07-29T15:44:06.215Z,26.34
2022-07-29T15:46:51.422Z,26.24
2022-07-29T15:49:17.945Z,26.03
2022-07-29T15:51:44.475Z,25.95
2022-07-29T15:54:10.966Z,26.03
2022-07-29T15:56:37.375Z,26.00
2022-07-29T15:59:03.866Z,25.88
2022-07-29T16:01:30.920Z,26.01
2022-07-29T16:03:58.613Z,25.89
2022-07-29T16:06:25.455Z,25.96
2022-07-29T16:08:51.931Z,25.99
2022-07-29T16:11:18.370Z,25.98
2022-07-29T16:13:44.822Z,26.02
2022-07-29T16:16:12.843Z,25.92
2022-07-29T16:18:39.329Z,25.95
2022-07-29T16:21:05.754Z,25.96
2022-07-29T16:23:32.217Z,25.89
2022-07-29T16:26:00.446Z,25.85
2022-07-29T16:28:29.613Z,25.70
2022-07-29T16:30:57.199Z,25.72
2022-07-29T16:33:55.446Z,25.66
2022-07-29T16:36:24.467Z,25.62
2022-07-29T16:38:50.948Z,25.61
2022-07-29T16:41:17.446Z,25.66
2022-07-29T16:43:44.006Z,25.60
2022-07-29T16:46:15.684Z,25.54
2022-07-29T16:48:46.356Z,25.38
2022-07-29T16:51:14.222Z,25.41
2022-07-29T16:53:41.288Z,25.34
2022-07-29T16:56:08.482Z,25.21
2022-07-29T16:58:43.485Z,25.12
2022-07-29T17:01:10.457Z,25.06
2022-07-29T17:03:59.965Z,25.00
2022-07-29T17:06:29.348Z,24.99
2022-07-29T17:08:57.500Z,24.89
2022-07-29T17:11:52.911Z,24.78
2022-07-29T17:14:11.027Z,24.82
2022-07-29T17:16:37.693Z,24.72
2022-07-29T17:19:04.422Z,24.65
2022-07-29T17:21:31.006Z,24.59
2022-07-29T17:23:59.603Z,24.61
2022-07-29T17:26:28.069Z,24.59
2022-07-29T17:28:55.520Z,24.55
2022-07-29T17:31:23.647Z,24.42
2022-07-29T17:33:50.803Z,24.47
2022-07-29T17:36:29.713Z,24.43
2022-07-29T17:38:58.397Z,24.31
2022-07-29T17:41:28.429Z,24.28
2022-07-29T17:43:55.571Z,24.27
2022-07-29T17:46:27.410Z,24.19
2022-07-29T17:48:56.900Z,24.14
2022-07-29T17:51:25.826Z,24.07
2022-07-29T17:53:53.803Z,24.02
2022-07-29T17:56:23.309Z,24.02
2022-07-29T17:58:50.483Z,23.95
2022-07-29T18:01:17.326Z,23.91
2022-07-29T18:03:44.090Z,23.87
2022-07-29T18:06:11.515Z,23.81
2022-07-29T18:08:39.067Z,23.78
2022-07-29T18:11:06.251Z,23.70
2022-07-29T18:13:33.274Z,23.66
2022-07-29T18:16:00.708Z,23.60
2022-07-29T18:18:27.440Z,23.54
2022-07-29T18:20:59.916Z,23.51
2022-07-29T18:23:26.988Z,23.51
2022-07-29T18:25:53.567Z,23.41
2022-07-29T18:28:20.696Z,23.37
2022-07-29T18:30:47.439Z,23.00
2022-07-29T18:33:24.267Z,22.73
2022-07-29T18:35:52.548Z,22.56
2022-07-29T18:38:37.864Z,22.49
2022-07-29T18:41:04.310Z,22.45
2022-07-29T18:43:30.946Z,22.46
2022-07-29T18:45:57.428Z,22.36
2022-07-29T18:48:24.455Z,22.43
2022-07-29T18:50:50.959Z,22.48
2022-07-29T18:53:17.541Z,22.26
2022-07-29T18:55:44.133Z,22.10
2022-07-29T18:58:10.550Z,22.06
2022-07-29T19:00:37.067Z,21.92
2022-07-29T19:03:03.723Z,21.79
2022-07-29T19:05:30.676Z,21.67
2022-07-29T19:07:57.255Z,21.66
2022-07-29T19:10:24.401Z,21.61
2022-07-29T19:12:50.884Z,21.61
2022-07-29T19:15:20.442Z,21.45
2022-07-29T19:17:48.045Z,21.34
2022-07-29T19:20:15.546Z,21.24
2022-07-29T19:22:42.051Z,21.11
2022-07-29T19:25:09.827Z,21.00
2022-07-29T19:27:36.367Z,20.84
2022-07-29T19:30:05.120Z,20.50
2022-07-29T19:32:31.576Z,20.29
2022-07-29T19:35:17.326Z,20.20
2022-07-29T19:37:43.799Z,19.98
2022-07-29T19:40:12.109Z,19.98
2022-07-29T19:42:38.806Z,19.83
2022-07-29T19:45:05.819Z,19.77
2022-07-29T19:47:32.260Z,19.77
2022-07-29T19:50:00.784Z,19.65
2022-07-29T19:52:27.735Z,19.66
2022-07-29T19:54:55.574Z,19.59
2022-07-29T19:57:22.908Z,19.59
2022-07-29T19:59:50.884Z,19.66
2022-07-29T20:02:17.483Z,19.66
2022-07-29T20:04:43.954Z,19.66
2022-07-29T20:07:11.259Z,19.72
2022-07-29T20:09:40.004Z,19.74
2022-07-29T20:12:10.250Z,19.74
2022-07-29T20:14:37.430Z,19.67
2022-07-29T20:17:04.832Z,19.72
2022-07-29T20:19:32.811Z,19.79
2022-07-29T20:21:59.785Z,19.81
2022-07-29T20:24:26.850Z,19.87
2022-07-29T20:26:54.847Z,19.84
2022-07-29T20:29:21.783Z,19.80
2022-07-29T20:31:52.921Z,19.84
2022-07-29T20:34:24.836Z,19.92
2022-07-29T20:36:51.318Z,19.86
2022-07-29T20:39:17.828Z,19.84
2022-07-29T20:41:44.439Z,19.92
2022-07-29T20:44:10.982Z,19.98
2022-07-29T20:46:39.170Z,19.91
2022-07-29T20:49:05.811Z,19.89
2022-07-29T20:51:32.487Z,19.85
2022-07-29T20:54:09.873Z,19.84
2022-07-29T20:56:36.366Z,19.67
2022-07-29T20:59:03.094Z,19.34
2022-07-29T21:01:29.721Z,19.07
2022-07-29T21:03:56.558Z,18.74
2022-07-29T21:06:23.135Z,18.54
2022-07-29T21:08:49.621Z,18.19
2022-07-29T21:11:16.207Z,18.21
2022-07-29T21:13:45.044Z,18.17
2022-07-29T21:16:14.789Z,18.00
2022-07-29T21:18:43.914Z,17.83
2022-07-29T21:21:10.389Z,17.77
2022-07-29T21:23:36.873Z,17.69
2022-07-29T21:26:04.266Z,17.66
2022-07-29T21:28:36.605Z,17.58
2022-07-29T21:31:11.055Z,17.54
2022-07-29T21:33:39.114Z,17.40
2022-07-29T21:36:35.420Z,17.28
2022-07-29T21:38:53.873Z,17.31
2022-07-29T21:41:22.731Z,17.35
2022-07-29T21:43:50.224Z,17.31
2022-07-29T21:46:18.042Z,17.38
2022-07-29T21:48:44.796Z,17.40
2022-07-29T21:51:11.412Z,17.49
2022-07-29T21:53:37.825Z,17.47
2022-07-29T21:56:04.626Z,17.36
2022-07-29T21:58:34.657Z,17.29
2022-07-29T22:01:03.009Z,17.31
2022-07-29T22:03:32.660Z,17.37
2022-07-29T22:05:59.181Z,17.34
2022-07-29T22:08:25.849Z,17.33
2022-07-29T22:11:17.090Z,17.39
2022-07-29T22:13:47.059Z,17.37
2022-07-29T22:16:15.009Z,17.38
2022-07-29T22:18:44.998Z,17.41
2022-07-29T22:21:11.461Z,17.26
2022-07-29T22:23:38.158Z,17.20
2022-07-29T22:26:04.654Z,17.14
2022-07-29T22:28:31.333Z,17.08
2022-07-29T22:30:57.861Z,17.00
2022-07-29T22:33:34.817Z,17.14
2022-07-29T22:36:02.579Z,17.10
2022-07-29T22:38:28.986Z,16.97
2022-07-29T22:41:00.477Z,17.02
2022-07-29T22:43:28.553Z,17.03
2022-07-29T22:45:55.905Z,17.03
2022-07-29T22:48:25.816Z,17.05
2022-07-29T22:50:52.493Z,17.11
2022-07-29T22:53:19.013Z,17.09
2022-07-29T22:55:45.767Z,17.02
2022-07-29T22:58:12.461Z,17.10
2022-07-29T23:00:39.051Z,17.04
2022-07-29T23:03:05.500Z,17.05
2022-07-29T23:05:32.688Z,16.99
2022-07-29T23:07:59.775Z,16.98
2022-07-29T23:10:26.805Z,17.01
2022-07-29T23:13:00.773Z,17.03
2022-07-29T23:15:28.474Z,16.94
2022-07-29T23:17:55.499Z,16.97
2022-07-29T23:20:22.839Z,17.10
2022-07-29T23:22:49.769Z,17.16
2022-07-29T23:25:16.218Z,17.14
2022-07-29T23:27:42.681Z,17.10
2022-07-29T23:30:09.662Z,17.03
2022-07-29T23:32:36.080Z,16.93
2022-07-29T23:35:02.658Z,16.92
2022-07-29T23:37:29.101Z,16.79
2022-07-29T23:39:56.111Z,16.60
2022-07-29T23:42:25.941Z,16.72
2022-07-29T23:44:52.394Z,16.76
2022-07-29T23:47:18.931Z,16.79
2022-07-29T23:49:46.459Z,16.76
2022-07-29T23:52:12.921Z,16.72
2022-07-29T23:54:39.383Z,16.74
2022-07-29T23:57:05.930Z,16.79
2022-07-29T23:59:32.335Z,16.85
